Time;durP1;ratioP1;P1;durP2;ratioP2;P2;SDS_P1;SDS_P2;PMS_P1;PMS_P2;Temp;Humidity;BMP_temperature;BMP_pressure;BME280_temperature;BME280_humidity;BME280_pressure;Samples;Min_cycle;Max_cycle;Signal;HPM_P1;HPM_P2
2022/10/19 00:00:48;;;;;;;1.33;0.93;;;13.90;93.00;;;;;;5031078;28;20045;-69
2022/10/19 00:03:15;;;;;;;1.33;1.23;;;13.90;93.20;;;;;;5028118;28;20172;-70
2022/10/19 00:05:41;;;;;;;0.95;0.95;;;13.90;93.30;;;;;;5028692;28;20504;-70
2022/10/19 00:08:07;;;;;;;1.23;1.23;;;13.90;93.40;;;;;;5030127;28;20175;-72
2022/10/19 00:10:32;;;;;;;1.10;1.03;;;13.90;93.50;;;;;;5030955;28;20033;-70
2022/10/19 00:12:58;;;;;;;1.57;1.47;;;13.80;93.60;;;;;;5030070;28;20036;-69
2022/10/19 00:15:24;;;;;;;2.03;1.00;;;13.80;93.80;;;;;;5028265;28;20029;-69
2022/10/19 00:17:49;;;;;;;1.40;0.77;;;13.80;93.90;;;;;;5026826;28;20075;-69
2022/10/19 00:20:15;;;;;;;0.37;0.37;;;13.70;94.00;;;;;;5029007;28;20029;-71
2022/10/19 00:22:40;;;;;;;1.23;1.13;;;13.70;94.00;;;;;;5030586;28;20029;-69
2022/10/19 00:25:06;;;;;;;1.67;1.07;;;13.70;94.10;;;;;;5027737;28;20026;-69
2022/10/19 00:27:32;;;;;;;3.28;2.00;;;13.80;94.00;;;;;;5027912;28;20113;-70
2022/10/19 00:29:58;;;;;;;0.70;0.70;;;13.80;94.00;;;;;;5029757;28;20112;-69
2022/10/19 00:32:23;;;;;;;0.40;0.40;;;13.80;94.10;;;;;;5026849;28;20389;-69
2022/10/19 00:34:49;;;;;;;1.73;1.60;;;13.80;94.20;;;;;;5029397;28;20025;-70
2022/10/19 00:37:15;;;;;;;1.70;1.37;;;13.80;94.30;;;;;;5027915;28;20124;-69
2022/10/19 00:39:40;;;;;;;0.53;0.53;;;13.80;94.40;;;;;;5029711;28;20029;-70
2022/10/19 00:42:10;;;;;;;8.03;2.03;;;13.80;94.50;;;;;;5030847;28;20033;-70
2022/10/19 00:44:35;;;;;;;0.65;0.65;;;13.80;94.60;;;;;;5011683;28;20057;-70
2022/10/19 00:47:04;;;;;;;0.63;0.63;;;13.80;94.70;;;;;;5020805;28;20029;-70
2022/10/19 00:49:33;;;;;;;1.58;1.48;;;13.70;94.80;;;;;;5032422;28;20534;-70
2022/10/19 00:52:06;;;;;;;1.23;1.20;;;13.70;94.90;;;;;;5031163;28;20028;-70
2022/10/19 00:54:33;;;;;;;2.55;1.90;;;13.70;95.10;;;;;;5031854;28;20042;-70
2022/10/19 00:56:59;;;;;;;0.98;0.98;;;13.70;95.20;;;;;;5033915;28;20068;-70
2022/10/19 00:59:27;;;;;;;3.00;1.23;;;13.70;95.20;;;;;;5032183;28;20384;-70
2022/10/19 01:01:53;;;;;;;0.75;0.75;;;13.70;95.40;;;;;;5033052;28;20040;-70
2022/10/19 01:04:23;;;;;;;0.85;0.85;;;13.70;95.60;;;;;;5030681;28;20489;-70
2022/10/19 01:06:50;;;;;;;4.75;1.05;;;13.60;95.70;;;;;;5031435;28;20025;-70
2022/10/19 01:09:16;;;;;;;0.93;0.93;;;13.60;95.80;;;;;;5031899;28;20528;-70
2022/10/19 01:12:01;;;;;;;2.00;1.80;;;13.60;96.10;;;;;;5033469;28;20071;-70
2022/10/19 01:14:38;;;;;;;0.85;0.85;;;13.60;96.20;;;;;;5020257;28;20044;-70
2022/10/19 01:17:28;;;;;;;0.40;0.40;;;13.60;96.50;;;;;;5034217;28;20018;-69
2022/10/19 01:20:17;;;;;;;1.15;1.02;;;13.60;96.70;;;;;;5032004;28;20060;-70
2022/10/19 01:23:03;;;;;;;1.52;1.42;;;13.60;97.00;;;;;;5032440;28;20037;-70
2022/10/19 01:25:51;;;;;;;1.35;0.93;;;13.50;97.10;;;;;;5032289;28;20033;-70
2022/10/19 01:28:50;;;;;;;0.73;0.73;;;13.50;97.30;;;;;;5031718;28;20033;-70
2022/10/19 01:31:43;;;;;;;0.73;0.73;;;13.40;97.60;;;;;;5031799;28;20072;-70
2022/10/19 01:34:38;;;;;;;1.13;1.05;;;13.40;97.90;;;;;;5029607;28;20037;-70
2022/10/19 01:37:29;;;;;;;4.43;0.60;;;13.40;98.30;;;;;;5028313;28;20041;-70
2022/10/19 01:40:17;;;;;;;1.08;1.00;;;13.40;98.60;;;;;;5031797;28;20038;-70
2022/10/19 01:43:02;;;;;;;0.52;0.52;;;13.30;99.10;;;;;;5032776;28;20030;-69
2022/10/19 01:45:37;;;;;;;3.97;1.90;;;13.30;99.50;;;;;;5031458;28;20099;-70
2022/10/19 01:48:17;;;;;;;0.98;0.93;;;13.30;99.80;;;;;;5032244;28;20046;-70
2022/10/19 01:51:00;;;;;;;0.60;0.60;;;13.30;99.90;;;;;;5030630;28;20466;-70
2022/10/19 01:53:29;;;;;;;2.30;2.05;;;13.20;99.90;;;;;;5029386;28;20110;-70
2022/10/19 01:55:56;;;;;;;0.82;0.77;;;13.20;99.90;;;;;;5032422;28;20032;-70
2022/10/19 01:58:26;;;;;;;0.93;0.93;;;13.20;99.90;;;;;;5029299;28;20547;-70
2022/10/19 02:00:54;;;;;;;1.00;0.85;;;13.00;99.90;;;;;;5033265;28;20026;-70
2022/10/19 02:03:22;;;;;;;2.08;1.98;;;13.10;99.90;;;;;;5031316;28;20064;-70
2022/10/19 02:05:50;;;;;;;1.40;1.30;;;13.00;99.90;;;;;;5031923;28;20033;-69
2022/10/19 02:08:22;;;;;;;1.05;1.02;;;13.00;99.90;;;;;;5030683;28;20038;-71
2022/10/19 02:10:48;;;;;;;1.75;0.93;;;13.00;99.90;;;;;;5033032;28;20029;-70
2022/10/19 02:13:15;;;;;;;0.60;0.60;;;13.10;99.90;;;;;;5031365;28;20034;-70
2022/10/19 02:15:45;;;;;;;1.00;1.00;;;12.90;99.90;;;;;;5032394;28;20033;-70
2022/10/19 02:18:15;;;;;;;0.93;0.82;;;12.90;99.90;;;;;;5031961;28;20076;-70
2022/10/19 02:20:41;;;;;;;1.30;1.08;;;12.90;99.90;;;;;;5031862;28;20026;-70
2022/10/19 02:23:07;;;;;;;1.13;1.03;;;12.90;99.90;;;;;;5031779;28;20041;-70
2022/10/19 02:25:33;;;;;;;0.97;0.97;;;12.80;99.90;;;;;;5030999;28;20096;-69
2022/10/19 02:28:01;;;;;;;5.65;2.30;;;12.80;99.90;;;;;;5031786;28;20029;-69
2022/10/19 02:30:27;;;;;;;3.80;1.63;;;12.80;99.90;;;;;;5030431;28;20057;-70
2022/10/19 02:32:52;;;;;;;0.90;0.90;;;12.70;99.90;;;;;;5030978;28;20473;-69
2022/10/19 02:35:18;;;;;;;0.47;0.47;;;12.70;99.90;;;;;;5030113;28;20034;-69
2022/10/19 02:37:44;;;;;;;0.60;0.60;;;12.70;99.90;;;;;;5031532;28;20488;-70
2022/10/19 02:40:10;;;;;;;0.73;0.73;;;12.60;99.90;;;;;;5029057;28;20469;-70
2022/10/19 02:42:48;;;;;;;7.70;1.75;;;12.60;99.90;;;;;;5030537;28;20033;-70
2022/10/19 02:45:29;;;;;;;0.55;0.55;;;12.60;99.90;;;;;;5030989;28;20504;-70
2022/10/19 02:48:01;;;;;;;1.15;1.05;;;12.50;99.90;;;;;;5029110;28;20050;-69
2022/10/19 02:50:27;;;;;;;1.45;0.88;;;12.50;99.90;;;;;;5031245;28;20045;-70
2022/10/19 02:52:52;;;;;;;0.80;0.80;;;12.60;99.90;;;;;;5029875;28;20045;-68
2022/10/19 02:55:18;;;;;;;2.93;0.97;;;12.50;99.90;;;;;;5029166;28;20485;-68
2022/10/19 02:57:44;;;;;;;1.90;1.73;;;12.50;99.90;;;;;;5030534;28;20018;-69
2022/10/19 03:00:10;;;;;;;2.03;1.83;;;12.50;99.90;;;;;;5031693;28;20076;-69
2022/10/19 03:02:36;;;;;;;2.33;1.48;;;12.50;99.90;;;;;;5029214;28;20507;-70
2022/10/19 03:05:02;;;;;;;0.50;0.50;;;12.40;99.90;;;;;;5030319;28;20069;-69
2022/10/19 03:07:28;;;;;;;2.83;1.67;;;12.40;99.90;;;;;;5029649;28;20030;-69
2022/10/19 03:09:53;;;;;;;1.80;1.70;;;12.30;99.90;;;;;;5029673;28;20037;-70
2022/10/19 03:12:19;;;;;;;0.63;0.63;;;12.30;99.90;;;;;;5028735;28;20033;-70
2022/10/19 03:14:44;;;;;;;0.83;0.83;;;12.30;99.90;;;;;;5030691;28;20034;-70
2022/10/19 03:17:10;;;;;;;1.10;1.10;;;12.30;99.90;;;;;;5030653;28;20100;-70
2022/10/19 03:19:36;;;;;;;2.30;2.10;;;12.30;99.90;;;;;;5029641;28;20477;-70
2022/10/19 03:22:03;;;;;;;2.70;1.73;;;12.30;99.90;;;;;;5031413;28;20623;-70
2022/10/19 03:24:29;;;;;;;0.50;0.50;;;12.30;99.90;;;;;;5029630;28;20117;-70
2022/10/19 03:26:55;;;;;;;4.78;2.10;;;12.20;99.90;;;;;;5030267;28;20041;-69
2022/10/19 03:29:21;;;;;;;0.40;0.40;;;12.30;99.90;;;;;;5029268;28;20034;-70
2022/10/19 03:31:46;;;;;;;0.40;0.40;;;12.20;99.90;;;;;;5029811;28;20100;-70
2022/10/19 03:34:12;;;;;;;2.47;2.27;;;12.20;99.90;;;;;;5030105;28;20048;-70
2022/10/19 03:36:38;;;;;;;5.27;2.57;;;12.20;99.90;;;;;;5029670;28;20040;-70
2022/10/19 03:39:07;;;;;;;1.75;1.65;;;12.10;99.90;;;;;;5029055;28;20040;-69
2022/10/19 03:41:34;;;;;;;1.25;1.15;;;12.10;99.90;;;;;;5029243;28;20562;-70
2022/10/19 03:44:00;;;;;;;0.68;0.68;;;12.10;99.90;;;;;;5029398;28;20034;-69
2022/10/19 03:46:26;;;;;;;2.10;1.53;;;12.10;99.90;;;;;;5031319;28;20044;-69
2022/10/19 03:48:52;;;;;;;2.73;2.53;;;12.10;99.90;;;;;;5028968;28;20043;-70
2022/10/19 03:51:23;;;;;;;1.50;1.40;;;12.00;99.90;;;;;;5028863;28;20042;-70
2022/10/19 03:53:58;;;;;;;1.17;1.05;;;12.00;99.90;;;;;;5027730;28;20444;-70
2022/10/19 03:56:25;;;;;;;0.90;0.88;;;11.90;99.90;;;;;;5026425;28;20557;-70
2022/10/19 03:58:53;;;;;;;2.28;2.08;;;11.90;99.90;;;;;;5026540;28;20117;-70
2022/10/19 04:01:25;;;;;;;1.08;1.08;;;12.00;99.90;;;;;;5026738;28;20115;-69
2022/10/19 04:03:55;;;;;;;1.13;1.13;;;11.90;99.90;;;;;;5029473;28;20033;-69
2022/10/19 04:06:24;;;;;;;1.48;1.38;;;11.90;99.90;;;;;;5028125;28;20389;-70
2022/10/19 04:08:50;;;;;;;1.13;1.05;;;11.90;99.90;;;;;;5030559;28;20036;-69
2022/10/19 04:11:19;;;;;;;3.40;1.83;;;11.80;99.90;;;;;;5029084;28;20045;-70
2022/10/19 04:13:48;;;;;;;1.95;1.25;;;11.80;99.90;;;;;;5028831;28;20026;-70
2022/10/19 04:16:14;;;;;;;1.40;1.30;;;11.80;99.90;;;;;;5030185;28;20535;-71
2022/10/19 04:18:39;;;;;;;1.47;1.37;;;11.80;99.90;;;;;;5028758;28;20033;-70
2022/10/19 04:21:05;;;;;;;1.70;1.60;;;11.80;99.90;;;;;;5030324;28;20032;-69
2022/10/19 04:23:34;;;;;;;4.13;1.43;;;11.80;99.90;;;;;;5044088;28;20449;-70
2022/10/19 04:26:05;;;;;;;0.57;0.57;;;11.80;99.90;;;;;;5029558;28;20573;-71
2022/10/19 04:28:30;;;;;;;0.93;0.90;;;11.80;99.90;;;;;;5028458;28;20120;-71
2022/10/19 04:31:00;;;;;;;1.43;1.33;;;11.80;99.90;;;;;;5029024;28;20112;-70
2022/10/19 04:33:26;;;;;;;1.20;1.13;;;11.80;99.90;;;;;;5029099;28;20037;-70
2022/10/19 04:36:00;;;;;;;1.60;1.27;;;11.90;99.90;;;;;;5028555;28;20048;-70
2022/10/19 04:38:27;;;;;;;4.03;1.75;;;11.90;99.90;;;;;;5029512;28;20025;-70
2022/10/19 04:40:52;;;;;;;5.32;2.95;;;12.00;99.90;;;;;;5027991;28;20032;-69
2022/10/19 04:43:18;;;;;;;1.60;1.50;;;12.00;99.90;;;;;;5029066;28;20034;-69
2022/10/19 04:45:44;;;;;;;1.60;1.50;;;13.00;99.90;;;;;;5029595;28;20084;-70
2022/10/19 04:48:09;;;;;;;3.03;1.97;;;12.10;99.90;;;;;;5029937;28;20041;-69
2022/10/19 04:50:35;;;;;;;1.23;1.13;;;12.20;99.90;;;;;;5028225;28;20033;-68
2022/10/19 04:53:01;;;;;;;1.50;1.40;;;12.10;99.90;;;;;;5029627;28;20089;-69
2022/10/19 04:55:26;;;;;;;1.13;1.03;;;12.20;99.90;;;;;;5030457;28;20030;-70
2022/10/19 04:57:52;;;;;;;1.67;1.57;;;12.30;99.90;;;;;;5029600;28;20120;-69
2022/10/19 05:00:17;;;;;;;1.77;1.67;;;12.30;99.90;;;;;;5029216;28;20500;-69
2022/10/19 05:02:44;;;;;;;6.87;2.80;;;12.30;99.90;;;;;;5029528;28;20047;-70
2022/10/19 05:05:11;;;;;;;1.05;1.00;;;12.30;99.90;;;;;;5029013;28;20030;-70
2022/10/19 05:07:36;;;;;;;2.67;1.77;;;12.30;99.90;;;;;;5031285;28;20124;-70
2022/10/19 05:10:03;;;;;;;1.57;1.47;;;12.30;99.90;;;;;;5029174;28;20116;-70
2022/10/19 05:12:28;;;;;;;1.92;1.73;;;12.30;99.90;;;;;;5029682;28;20033;-70
2022/10/19 05:14:54;;;;;;;2.47;1.87;;;12.40;99.90;;;;;;5029303;28;20044;-70
2022/10/19 05:17:19;;;;;;;0.60;0.60;;;12.30;99.90;;;;;;5028559;28;20029;-71
2022/10/19 05:19:45;;;;;;;2.03;1.67;;;12.20;99.90;;;;;;5030111;28;20034;-70
2022/10/19 05:22:10;;;;;;;1.47;1.40;;;12.20;99.90;;;;;;5028800;28;20472;-68
2022/10/19 05:24:36;;;;;;;3.73;2.87;;;12.20;99.90;;;;;;5029355;28;20125;-70
2022/10/19 05:27:01;;;;;;;1.10;1.07;;;12.20;99.90;;;;;;5031538;28;20068;-69
2022/10/19 05:29:27;;;;;;;1.20;1.10;;;12.20;99.90;;;;;;5029402;28;20026;-70
2022/10/19 05:31:53;;;;;;;2.20;1.53;;;12.20;99.90;;;;;;5033532;28;20516;-71
2022/10/19 05:34:18;;;;;;;5.07;2.73;;;12.10;99.90;;;;;;5030294;28;20033;-70
2022/10/19 05:36:44;;;;;;;0.80;0.80;;;12.10;99.90;;;;;;5031979;28;20456;-70
2022/10/19 05:39:15;;;;;;;4.70;1.80;;;12.20;99.90;;;;;;5031684;28;20040;-70
2022/10/19 05:41:43;;;;;;;6.63;1.20;;;12.20;99.90;;;;;;5033429;28;20051;-69
2022/10/19 05:44:15;;;;;;;2.47;2.28;;;12.10;99.90;;;;;;5030753;28;20040;-69
2022/10/19 05:46:43;;;;;;;3.38;3.08;;;12.00;99.90;;;;;;5032759;28;20045;-69
2022/10/19 05:49:10;;;;;;;0.63;0.63;;;12.00;99.90;;;;;;5031154;28;20040;-69
2022/10/19 05:51:36;;;;;;;2.28;1.77;;;12.00;99.90;;;;;;5032549;28;20052;-69
2022/10/19 05:54:02;;;;;;;1.40;1.30;;;12.00;99.90;;;;;;5030335;28;20065;-69
2022/10/19 05:56:30;;;;;;;2.83;2.03;;;12.00;99.90;;;;;;5031238;28;20092;-69
2022/10/19 05:58:58;;;;;;;1.27;1.17;;;12.10;99.90;;;;;;5030606;28;20059;-71
2022/10/19 06:01:24;;;;;;;3.20;2.90;;;12.10;99.90;;;;;;5032043;28;20030;-69
2022/10/19 06:03:56;;;;;;;1.07;1.07;;;12.20;99.90;;;;;;5031078;28;20032;-69
2022/10/19 06:06:22;;;;;;;2.40;2.20;;;12.10;99.90;;;;;;5030095;28;20071;-69
2022/10/19 06:08:48;;;;;;;3.03;1.13;;;12.10;99.90;;;;;;5030504;28;20079;-69
2022/10/19 06:11:19;;;;;;;0.60;0.60;;;12.10;99.90;;;;;;5033138;28;20473;-70
2022/10/19 06:13:46;;;;;;;0.43;0.43;;;12.10;99.90;;;;;;5029196;28;20405;-70
2022/10/19 06:16:13;;;;;;;1.60;1.50;;;12.20;99.90;;;;;;5032299;28;20065;-70
2022/10/19 06:18:40;;;;;;;0.60;0.60;;;12.20;99.90;;;;;;5031971;28;20033;-71
2022/10/19 06:21:09;;;;;;;0.60;0.60;;;13.20;99.90;;;;;;5033148;28;20037;-70
2022/10/19 06:23:35;;;;;;;0.70;0.70;;;12.20;99.90;;;;;;5030839;28;20384;-70
2022/10/19 06:26:10;;;;;;;0.40;0.40;;;12.20;99.90;;;;;;5033003;28;20040;-69
2022/10/19 06:28:37;;;;;;;0.40;0.40;;;12.20;99.90;;;;;;5029982;28;20053;-70
2022/10/19 06:31:03;;;;;;;0.63;0.63;;;12.20;99.90;;;;;;5031607;28;20127;-70
2022/10/19 06:33:30;;;;;;;0.63;0.63;;;12.30;99.90;;;;;;5030014;28;20060;-69
2022/10/19 06:36:03;;;;;;;5.82;1.25;;;12.30;99.90;;;;;;5032626;28;20046;-70
2022/10/19 06:38:29;;;;;;;0.85;0.85;;;12.30;99.90;;;;;;5031119;28;20017;-70
2022/10/19 06:40:58;;;;;;;0.40;0.40;;;12.30;99.90;;;;;;5031068;28;20075;-69
2022/10/19 06:43:23;;;;;;;1.50;0.70;;;12.40;99.90;;;;;;5030058;28;20480;-70
2022/10/19 06:45:49;;;;;;;1.23;1.13;;;12.30;99.90;;;;;;5030197;28;20120;-69
2022/10/19 06:48:14;;;;;;;1.40;1.23;;;12.30;99.90;;;;;;5030974;28;20386;-70
2022/10/19 06:50:40;;;;;;;0.40;0.40;;;12.30;99.90;;;;;;5031471;28;20029;-70
2022/10/19 06:53:06;;;;;;;0.40;0.40;;;12.50;99.90;;;;;;5031434;28;20087;-70
2022/10/19 06:55:31;;;;;;;1.60;1.50;;;12.40;99.90;;;;;;5030342;28;20034;-70
2022/10/19 06:58:00;;;;;;;0.40;0.40;;;12.40;99.90;;;;;;5028535;28;20044;-70
2022/10/19 07:00:29;;;;;;;0.52;0.52;;;12.40;99.90;;;;;;5030671;28;20034;-70
2022/10/19 07:02:57;;;;;;;0.30;0.30;;;12.40;99.90;;;;;;5029741;28;20030;-70
2022/10/19 07:05:22;;;;;;;0.82;0.82;;;12.40;99.90;;;;;;5028668;28;20029;-70
2022/10/19 07:07:48;;;;;;;0.40;0.40;;;12.40;99.90;;;;;;5029561;28;20437;-70
2022/10/19 07:10:13;;;;;;;0.83;0.80;;;12.40;99.90;;;;;;5028845;28;20041;-70
2022/10/19 07:12:39;;;;;;;0.40;0.40;;;12.40;99.90;;;;;;5029966;28;20415;-70
2022/10/19 07:15:05;;;;;;;0.60;0.60;;;12.40;99.90;;;;;;5029873;28;20022;-69
2022/10/19 07:17:30;;;;;;;0.30;0.30;;;12.50;99.90;;;;;;5029892;28;20029;-71
2022/10/19 07:19:56;;;;;;;0.40;0.40;;;12.50;99.90;;;;;;5030063;28;20026;-70
2022/10/19 07:22:22;;;;;;;0.40;0.40;;;12.40;99.90;;;;;;5030757;28;20691;-70
2022/10/19 07:24:48;;;;;;;0.60;0.60;;;12.50;99.90;;;;;;5030532;28;20030;-70
2022/10/19 07:27:13;;;;;;;1.13;0.83;;;12.40;99.90;;;;;;5027437;28;20029;-70
2022/10/19 07:29:39;;;;;;;0.37;0.37;;;12.50;99.90;;;;;;5029682;28;20038;-69
2022/10/19 07:32:04;;;;;;;0.43;0.43;;;12.60;99.90;;;;;;5026950;28;20060;-70
2022/10/19 07:34:30;;;;;;;0.50;0.50;;;12.80;99.90;;;;;;5028866;28;20381;-71
2022/10/19 07:36:56;;;;;;;0.90;0.90;;;12.80;99.90;;;;;;5030717;28;20032;-70
2022/10/19 07:39:21;;;;;;;0.40;0.40;;;12.90;99.90;;;;;;5030022;28;20164;-70
2022/10/19 07:41:47;;;;;;;0.40;0.40;;;13.00;99.90;;;;;;5030022;28;20026;-70
2022/10/19 07:44:14;;;;;;;0.47;0.47;;;13.10;99.90;;;;;;5029148;28;20104;-70
2022/10/19 07:46:40;;;;;;;0.40;0.40;;;13.20;99.90;;;;;;5028885;28;20037;-70
2022/10/19 07:49:08;;;;;;;0.73;0.73;;;13.30;99.90;;;;;;5030249;28;20029;-71
2022/10/19 07:51:38;;;;;;;0.40;0.40;;;13.30;99.90;;;;;;5030109;28;20385;-71
2022/10/19 07:54:04;;;;;;;0.30;0.30;;;13.40;99.90;;;;;;5028945;28;20029;-71
2022/10/19 07:56:30;;;;;;;0.32;0.32;;;13.40;99.90;;;;;;5029842;28;20033;-71
2022/10/19 07:58:58;;;;;;;0.40;0.40;;;13.40;99.90;;;;;;5029878;28;20377;-71
2022/10/19 08:01:29;;;;;;;0.30;0.30;;;13.30;99.90;;;;;;5030109;28;20025;-71
2022/10/19 08:03:56;;;;;;;0.30;0.30;;;13.30;99.90;;;;;;5027897;28;20033;-71
2022/10/19 08:06:23;;;;;;;0.38;0.38;;;13.20;99.90;;;;;;5028291;28;20049;-70
2022/10/19 08:08:49;;;;;;;0.30;0.30;;;13.20;99.90;;;;;;5030156;28;20102;-71
2022/10/19 08:11:34;;;;;;;0.40;0.40;;;13.20;99.90;;;;;;5029887;28;20497;-70
2022/10/19 08:14:04;;;;;;;0.40;0.40;;;13.10;99.90;;;;;;5028019;28;20399;-70
2022/10/19 08:16:35;;;;;;;0.43;0.43;;;13.00;99.90;;;;;;5028283;28;20469;-70
2022/10/19 08:19:06;;;;;;;0.95;0.93;;;13.00;99.90;;;;;;5028718;28;20200;-70
2022/10/19 08:21:31;;;;;;;0.30;0.30;;;13.10;99.90;;;;;;5030746;28;20041;-70
2022/10/19 08:23:58;;;;;;;0.93;0.93;;;13.10;99.90;;;;;;5029438;28;20108;-70
2022/10/19 08:26:26;;;;;;;0.40;0.40;;;13.10;99.90;;;;;;5028765;28;20040;-70
2022/10/19 08:28:52;;;;;;;1.13;1.02;;;13.00;99.90;;;;;;5029607;28;20445;-70
2022/10/19 08:31:20;;;;;;;0.40;0.40;;;13.00;99.90;;;;;;5029705;28;20121;-70
2022/10/19 08:33:47;;;;;;;0.35;0.35;;;13.10;99.90;;;;;;5028873;28;20383;-70
2022/10/19 08:36:13;;;;;;;0.30;0.30;;;13.10;99.90;;;;;;5028409;28;20566;-69
2022/10/19 08:38:40;;;;;;;0.40;0.40;;;13.20;99.90;;;;;;5031689;28;20021;-70
2022/10/19 08:41:26;;;;;;;;;;;13.20;99.90;;;;;;5048977;28;20044;-71
2022/10/19 08:44:06;;;;;;;0.40;0.40;;;13.20;99.90;;;;;;5030011;28;19908;-69
2022/10/19 08:46:34;;;;;;;0.40;0.40;;;13.20;99.90;;;;;;5028755;28;20036;-70
2022/10/19 08:49:01;;;;;;;0.40;0.40;;;13.30;99.90;;;;;;5030234;28;20381;-70
2022/10/19 08:51:33;;;;;;;1.15;0.70;;;13.50;99.90;;;;;;5029660;28;20108;-70
2022/10/19 08:54:04;;;;;;;0.50;0.50;;;13.50;99.90;;;;;;5026999;28;20116;-69
2022/10/19 08:56:35;;;;;;;0.30;0.30;;;13.50;99.90;;;;;;5026504;28;20354;-71
2022/10/19 08:59:03;;;;;;;0.30;0.30;;;13.50;99.90;;;;;;5029386;28;20101;-70
2022/10/19 09:01:34;;;;;;;0.30;0.30;;;13.50;99.90;;;;;;5028849;28;20076;-70
2022/10/19 09:04:21;;;;;;;0.30;0.30;;;13.50;99.90;;;;;;5027925;28;20033;-69
2022/10/19 09:06:57;;;;;;;0.30;0.30;;;13.40;99.90;;;;;;5028943;28;20049;-70
2022/10/19 09:09:24;;;;;;;0.40;0.40;;;13.40;99.90;;;;;;5029041;28;20037;-70
2022/10/19 09:11:54;;;;;;;0.30;0.30;;;13.40;99.90;;;;;;5031961;28;20041;-70
2022/10/19 09:14:35;;;;;;;0.40;0.40;;;13.40;99.90;;;;;;5030533;28;20124;-70
2022/10/19 09:17:08;;;;;;;9.60;0.80;;;13.90;99.90;;;;;;5017502;28;20567;-71
2022/10/19 09:19:34;;;;;;;0.30;0.30;;;13.40;99.90;;;;;;5031143;28;20448;-70
2022/10/19 09:22:17;;;;;;;0.93;0.83;;;13.50;99.90;;;;;;5033512;28;20053;-70
2022/10/19 09:24:51;;;;;;;0.30;0.30;;;13.50;99.90;;;;;;5030698;28;20045;-69
2022/10/19 09:27:24;;;;;;;0.40;0.40;;;13.50;99.90;;;;;;5031879;28;20096;-71
2022/10/19 09:29:54;;;;;;;0.30;0.30;;;13.60;99.90;;;;;;5032714;28;20372;-70
2022/10/19 09:32:29;;;;;;;0.40;0.40;;;13.60;99.90;;;;;;5031102;28;20393;-70
2022/10/19 09:35:30;;;;;;;0.30;0.30;;;13.60;99.90;;;;;;5031412;28;20029;-69
2022/10/19 09:37:56;;;;;;;0.30;0.30;;;13.70;99.90;;;;;;5030554;28;20420;-70
2022/10/19 09:40:28;;;;;;;0.30;0.30;;;13.70;99.90;;;;;;5030843;28;20037;-70
2022/10/19 09:42:58;;;;;;;0.47;0.47;;;13.70;99.90;;;;;;5030928;28;20041;-71
2022/10/19 09:45:48;;;;;;;0.43;0.43;;;13.70;99.90;;;;;;5032495;28;20380;-70
2022/10/19 09:48:26;;;;;;;0.45;0.45;;;13.60;99.90;;;;;;5029688;28;20042;-70
2022/10/19 09:50:58;;;;;;;0.60;0.60;;;13.50;99.90;;;;;;5036513;28;20095;-70
2022/10/19 09:53:25;;;;;;;0.30;0.30;;;13.40;99.90;;;;;;5031482;28;20068;-70
2022/10/19 09:55:58;;;;;;;0.38;0.38;;;13.40;99.90;;;;;;5034688;28;20057;-71
2022/10/19 09:58:26;;;;;;;0.40;0.40;;;13.30;99.90;;;;;;5030500;28;20029;-71
2022/10/19 10:00:54;;;;;;;0.40;0.40;;;13.40;99.90;;;;;;5034390;28;20029;-70
2022/10/19 10:03:34;;;;;;;0.40;0.40;;;13.40;99.90;;;;;;5033605;28;20026;-71
2022/10/19 10:06:08;;;;;;;0.30;0.30;;;13.40;99.90;;;;;;5033070;28;20038;-71
2022/10/19 10:08:49;;;;;;;0.32;0.32;;;13.50;99.90;;;;;;5030036;28;20380;-70
2022/10/19 10:11:26;;;;;;;0.40;0.40;;;13.50;99.90;;;;;;5030754;28;20040;-71
2022/10/19 10:13:53;;;;;;;0.30;0.30;;;13.60;99.90;;;;;;5032349;28;20068;-71
2022/10/19 10:16:28;;;;;;;0.68;0.68;;;13.70;99.90;;;;;;5030432;28;20358;-71
2022/10/19 10:18:56;;;;;;;0.30;0.30;;;13.70;99.90;;;;;;5030810;28;20064;-70
2022/10/19 10:21:25;;;;;;;0.93;0.77;;;13.70;99.90;;;;;;5030707;28;20029;-70
2022/10/19 10:24:02;;;;;;;0.95;0.57;;;13.70;99.90;;;;;;5032883;28;20538;-70
2022/10/19 10:26:28;;;;;;;0.60;0.60;;;13.70;99.90;;;;;;5032491;28;20033;-70
2022/10/19 10:28:53;;;;;;;0.53;0.53;;;13.70;99.90;;;;;;5030209;28;20037;-70
2022/10/19 10:31:23;;;;;;;0.40;0.40;;;13.80;99.90;;;;;;5030927;28;20117;-71
2022/10/19 10:33:56;;;;;;;0.40;0.40;;;13.70;99.90;;;;;;5029532;28;20033;-70
2022/10/19 10:36:25;;;;;;;0.30;0.30;;;13.70;99.90;;;;;;5030948;28;20397;-71
2022/10/19 10:38:57;;;;;;;0.40;0.40;;;13.70;99.90;;;;;;5028404;28;20022;-71
2022/10/19 10:41:24;;;;;;;0.40;0.40;;;13.80;99.90;;;;;;5031000;28;20033;-71
2022/10/19 10:43:49;;;;;;;0.50;0.50;;;13.80;99.90;;;;;;5029267;28;20067;-70
2022/10/19 10:46:21;;;;;;;0.30;0.30;;;13.90;99.90;;;;;;5029797;28;20400;-71
2022/10/19 10:49:02;;;;;;;0.63;0.63;;;13.90;99.90;;;;;;5030418;28;20128;-70
2022/10/19 10:51:33;;;;;;;0.30;0.30;;;14.00;99.90;;;;;;5029994;28;20064;-71
2022/10/19 10:54:19;;;;;;;0.30;0.30;;;14.10;99.90;;;;;;5028372;28;20034;-70
2022/10/19 10:56:57;;;;;;;0.70;0.70;;;14.10;99.90;;;;;;5029356;28;20040;-70
2022/10/19 10:59:29;;;;;;;0.40;0.40;;;14.40;99.90;;;;;;5031770;28;20034;-70
2022/10/19 11:02:12;;;;;;;0.30;0.30;;;14.80;99.90;;;;;;5030083;28;20022;-70
2022/10/19 11:04:45;;;;;;;0.40;0.40;;;14.80;99.90;;;;;;5030692;28;20116;-70
2022/10/19 11:07:20;;;;;;;0.88;0.85;;;14.70;99.90;;;;;;5029948;28;20349;-70
2022/10/19 11:09:53;;;;;;;0.30;0.30;;;14.60;99.90;;;;;;5029057;28;20035;-70
2022/10/19 11:12:34;;;;;;;0.30;0.30;;;14.40;99.90;;;;;;5030248;28;20037;-71
2022/10/19 11:15:19;;;;;;;0.30;0.30;;;14.40;99.90;;;;;;5031194;28;20385;-69
2022/10/19 11:18:20;;;;;;;0.38;0.38;;;14.30;99.90;;;;;;5029440;28;20064;-70
2022/10/19 11:21:04;;;;;;;0.55;0.55;;;14.20;99.90;;;;;;5024475;28;20041;-70
2022/10/19 11:24:00;;;;;;;0.73;0.73;;;14.40;99.90;;;;;;5029612;28;20029;-70
2022/10/19 11:27:00;;;;;;;1.05;0.95;;;14.70;99.90;;;;;;5029487;28;20091;-70
2022/10/19 11:29:44;;;;;;;0.30;0.30;;;15.00;99.90;;;;;;5029126;28;20054;-71
2022/10/19 11:32:29;;;;;;;0.40;0.35;;;15.10;99.90;;;;;;5028289;28;20025;-70
2022/10/19 11:35:13;;;;;;;0.35;0.35;;;15.10;99.90;;;;;;5029918;28;20033;-70
2022/10/19 11:38:09;;;;;;;0.40;0.40;;;14.80;99.90;;;;;;5029333;28;20030;-70
2022/10/19 11:40:51;;;;;;;0.30;0.30;;;14.70;99.90;;;;;;5027192;28;20039;-70
2022/10/19 11:43:33;;;;;;;0.40;0.40;;;14.90;99.90;;;;;;5028400;28;20116;-70
2022/10/19 11:46:30;;;;;;;0.47;0.47;;;15.00;99.90;;;;;;5030392;28;20025;-71
2022/10/19 11:49:12;;;;;;;0.50;0.50;;;15.00;99.90;;;;;;5028518;28;20521;-71
2022/10/19 11:52:03;;;;;;;0.30;0.30;;;14.90;99.90;;;;;;5030066;28;20029;-70
2022/10/19 11:54:42;;;;;;;0.65;0.65;;;14.90;99.90;;;;;;5029741;28;20381;-70
2022/10/19 11:57:24;;;;;;;0.82;0.57;;;14.90;99.90;;;;;;5023860;28;20029;-70
2022/10/19 12:00:02;;;;;;;0.73;0.73;;;14.80;99.90;;;;;;5029712;28;20025;-71
2022/10/19 12:02:27;;;;;;;;;;;14.80;99.90;;;;;;5030194;28;20067;-71
2022/10/19 12:05:00;;;;;;;0.40;0.40;;;14.70;99.90;;;;;;5026734;28;19917;-71
2022/10/19 12:07:47;;;;;;;0.35;0.35;;;14.80;99.90;;;;;;5029558;28;20034;-71
2022/10/19 12:11:22;;;;;;;0.40;0.40;;;14.80;99.90;;;;;;5028844;28;20061;-71
2022/10/19 12:13:54;;;;;;;0.70;0.70;;;14.70;99.90;;;;;;5025507;28;20033;-71
2022/10/19 12:16:26;;;;;;;1.48;1.38;;;14.60;99.90;;;;;;5029199;28;20555;-70
2022/10/19 12:18:57;;;;;;;0.50;0.50;;;14.50;99.90;;;;;;5027579;28;20049;-71
2022/10/19 12:21:25;;;;;;;0.45;0.40;;;14.50;99.90;;;;;;5029022;28;20033;-71
2022/10/19 12:23:51;;;;;;;0.40;0.40;;;14.40;99.90;;;;;;5030793;28;20041;-70
2022/10/19 12:26:19;;;;;;;0.40;0.40;;;14.40;99.90;;;;;;5029382;28;20528;-71
2022/10/19 12:29:10;;;;;;;0.30;0.30;;;14.30;99.90;;;;;;5029643;28;20026;-70
2022/10/19 12:31:36;;;;;;;0.88;0.85;;;14.50;99.90;;;;;;5012060;28;20562;-70
2022/10/19 12:34:09;;;;;;;0.40;0.40;;;14.60;99.90;;;;;;5030005;28;20032;-70
2022/10/19 12:36:56;;;;;;;0.35;0.35;;;14.50;99.90;;;;;;5027128;28;20473;-70
2022/10/19 12:39:38;;;;;;;0.50;0.50;;;14.40;99.90;;;;;;5029755;28;20386;-70
2022/10/19 12:42:21;;;;;;;2.72;0.82;;;14.40;99.90;;;;;;5032644;28;20030;-71
2022/10/19 12:45:06;;;;;;;0.40;0.40;;;14.30;99.90;;;;;;5031908;28;20119;-69
2022/10/19 12:47:32;;;;;;;0.95;0.63;;;14.30;99.90;;;;;;5032921;28;20071;-71
2022/10/19 12:49:58;;;;;;;0.50;0.50;;;14.30;99.90;;;;;;5034098;28;20117;-70
2022/10/19 12:52:44;;;;;;;0.50;0.50;;;14.30;99.90;;;;;;5031452;28;20042;-70
2022/10/19 12:55:33;;;;;;;0.50;0.50;;;14.40;99.90;;;;;;5033124;28;20042;-70
2022/10/19 12:58:05;;;;;;;0.55;0.55;;;14.50;99.90;;;;;;5023866;28;20044;-70
2022/10/19 13:00:34;;;;;;;0.30;0.30;;;14.50;99.90;;;;;;5034306;28;20129;-70
2022/10/19 13:02:59;;;;;;;0.60;0.60;;;14.50;99.90;;;;;;5032492;28;20393;-69
2022/10/19 13:05:28;;;;;;;1.23;0.83;;;14.50;99.90;;;;;;5032872;28;20025;-71
2022/10/19 13:07:53;;;;;;;0.50;0.50;;;14.40;99.90;;;;;;5032303;28;20029;-69